Stations météo

réclame
Mon MeteoGroup
Sint Katelijne-Waver, Belgique (6439): Température de l'air & dewpoint: 08.08.2018 08:00:00 - 14.08.2018 08:00:00 (CEST)Sint Katelijne-Waver, Belgique (6439): Vitesse du vent & gusts: 08.08.2018 08:00:00 - 14.08.2018 08:00:00 (CEST)Sint Katelijne-Waver, Belgique (6439): Direction du vent: 08.08.2018 08:00:00 - 14.08.2018 08:00:00 (CEST)Sint Katelijne-Waver, Belgique (6439): reduced air pressure: 08.08.2018 08:00:00 - 14.08.2018 08:00:00 (CEST)Sint Katelijne-Waver, Belgique (6439): Ensoleillement: 08.08.2018 08:00:00 - 14.08.2018 08:00:00 (CEST)Sint Katelijne-Waver, Belgique (6439): Quantités de précipitations: 08.08.2018 08:00:00 - 14.08.2018 08:00:00 (CEST)
Date & Time tt [°C] td [°C] ff [km/h] ff [knt] fx [km/h] fx [knt] dd ppp [hPa] sd [min] rr [mm]
14.08.2018 08:00:00 18,0 16,5 11 6 16 9 WSW 1013,3 0 0,0
14.08.2018 07:00:00 17,2 16,0 9 5 17 9 SW 1012,5 0 0,0
14.08.2018 06:00:00 17,0 15,7 9 5 17 9 WSW 1011,9 0 0,0
14.08.2018 05:00:00 16,4 15,1 10 6 19 10 SW 1011,5 0 0,0
14.08.2018 04:00:00 15,7 14,5 8 4 16 9 SW 1011,3 0 0,0
14.08.2018 03:00:00 16,0 14,6 9 5 14 8 SW 1011,0 0 0,0
14.08.2018 02:00:00 16,3 14,8 7 4 14 7 SW 1010,9 0 0,0
14.08.2018 01:00:00 16,8 15,2 8 5 16 9 SW 1010,3 0 0,0
14.08.2018 00:00:00 17,4 15,6 10 5 16 8 SW 1009,9 0 0,0
13.08.2018 23:00:00 17,9 16,5 6 4 11 6 SW 1009,4 0 0,0
13.08.2018 22:00:00 17,8 16,1 7 4 22 12 WSW 1009,1 0 1,4
13.08.2018 21:00:00 19,0 15,5 18 10 34 18 WSW 1008,7 0 0,1
13.08.2018 20:00:00 20,4 14,8 14 8 22 12 SW 1007,9 33 0,0
13.08.2018 19:00:00 20,8 15,0 9 5 23 12 WSW 1007,6 50 0,0
13.08.2018 18:00:00 20,0 14,5 17 9 31 17 WSW 1007,4 7 0,0
13.08.2018 17:00:00 21,4 15,5 18 10 31 17 WSW 1007,2 26 0,0
13.08.2018 16:00:00 21,6 15,8 18 10 29 16 WSW 1006,9 39 0,0
13.08.2018 15:00:00 19,7 15,7 16 8 26 14 SW 1007,0 2 0,0
13.08.2018 14:00:00 19,5 15,7 14 8 31 17 SW 1006,9 0 0,0
13.08.2018 13:00:00 19,3 17,7 10 6 33 18 SW 1006,7 4 5,1
13.08.2018 12:00:00 20,3 16,6 13 7 26 14 SSW 1006,4 18 0,0
13.08.2018 11:00:00 19,0 16,7 12 6 21 12 SW 1006,7 0 0,0
13.08.2018 10:00:00 18,7 16,9 12 6 18 10 SSW 1006,4 20 1,6
13.08.2018 09:00:00 18,4 16,7 11 6 19 11 SW 1006,8 0 0,1
13.08.2018 08:00:00 17,7 16,2 4 2 9 5 S 1006,2 0 0,6
13.08.2018 07:00:00 17,5 15,8 6 3 10 5 S 1006,4 0 0,0
13.08.2018 06:00:00 17,8 16,0 4 2 11 6 E 1006,4 0 0,3
13.08.2018 05:00:00 18,6 16,5 6 4 9 5 S 1006,9 0 0,0
13.08.2018 04:00:00 18,9 16,4 4 2 11 6 SSW 1006,8 0 0,1
13.08.2018 03:00:00 20,2 15,1 8 4 17 9 W 1007,4 0 0,1
13.08.2018 02:00:00 20,0 15,2 4 2 19 10 S 1007,8 0 0,1
13.08.2018 01:00:00 21,0 12,8 4 2 6 3 ESE 1007,9 0 0,0
13.08.2018 00:00:00 21,5 11,9 4 2 8 4 ESE 1008,2 0 0,0
12.08.2018 23:00:00 21,8 12,6 5 3 7 4 ESE 1008,7 0 0,0
12.08.2018 22:00:00 22,5 13,1 5 3 7 4 ESE 1009,4 0 0,0
12.08.2018 21:00:00 24,7 12,2 4 2 9 5 WSW 1009,5 0 0,0
12.08.2018 20:00:00 26,5 9,9 7 4 16 9 S 1009,6 1 0,0
12.08.2018 19:00:00 26,9 10,0 7 4 18 10 SSW 1010,3 2 0,0
12.08.2018 18:00:00 27,2 9,1 9 5 27 14 S 1010,9 28 0,0
12.08.2018 17:00:00 27,9 9,8 14 7 25 13 S 1011,5 60 0,0
12.08.2018 16:00:00 27,1 9,0 12 6 29 16 S 1012,5 60 0,0
12.08.2018 15:00:00 27,0 8,3 14 8 29 16 S 1013,3 60 0,0
12.08.2018 14:00:00 26,4 7,5 14 8 29 16 S 1014,1 60 0,0
12.08.2018 13:00:00 24,9 7,9 18 10 30 16 S 1015,0 60 0,0
12.08.2018 12:00:00 24,4 9,2 17 9 28 15 S 1015,6 60 0,0
12.08.2018 11:00:00 23,0 10,7 14 8 25 13 S 1015,9 60 0,0
12.08.2018 10:00:00 20,7 11,2 11 6 20 11 S 1016,4 35 0,0
12.08.2018 09:00:00 18,4 10,3 8 4 16 9 SSE 1016,8 52 0,0
12.08.2018 08:00:00 16,2 9,5 7 4 12 7 SE 1016,9 0 0,0
12.08.2018 07:00:00 15,1 9,4 6 4 12 6 SE 1017,3 0 0,0
12.08.2018 06:00:00 14,9 9,7 6 3 9 5 SE 1017,6 0 0,0
12.08.2018 05:00:00 14,7 9,9 4 2 8 4 SSE 1018,5 0 0,0
12.08.2018 04:00:00 14,1 10,2 5 3 9 5 SSE 1019,3 0 0,0
12.08.2018 03:00:00 14,2 9,9 6 4 9 5 SE 1019,7 0 0,0
12.08.2018 02:00:00 13,6 10,5 4 2 6 4 SE 1020,3 0 0,0
12.08.2018 01:00:00 13,9 9,9 4 2 6 3 SSE 1020,8 0 0,0
12.08.2018 00:00:00 14,4 10,5 4 2 7 4 SSE 1021,2 0 0,0
11.08.2018 23:00:00 14,4 10,2 4 2 6 3 SE 1021,5 0 0,0
11.08.2018 22:00:00 15,6 10,1 4 2 5 3 E 1021,8 0 0,0
11.08.2018 21:00:00 - - - - - - - - - -
11.08.2018 20:00:00 20,8 7,7 7 4 22 12 WSW 1022,2 60 0,0
11.08.2018 19:00:00 21,5 7,4 9 5 19 11 W 1022,5 60 0,0
11.08.2018 18:00:00 21,0 7,0 10 5 24 13 W 1022,7 60 0,0
11.08.2018 17:00:00 21,3 6,6 14 8 25 14 W 1023,1 55 0,0
11.08.2018 16:00:00 20,7 7,1 13 7 25 13 WSW 1023,4 50 0,0
11.08.2018 15:00:00 20,2 7,4 14 7 27 15 W 1023,7 51 0,0
11.08.2018 14:00:00 20,1 9,4 11 6 25 13 W 1024,1 42 0,0
11.08.2018 13:00:00 19,3 9,2 15 8 25 13 SW 1024,0 43 0,0
11.08.2018 12:00:00 18,6 9,3 14 7 27 15 WSW 1024,0 50 0,0
11.08.2018 11:00:00 17,6 10,4 11 6 23 13 WSW 1024,0 54 0,0
11.08.2018 10:00:00 16,5 11,5 13 7 21 12 WSW 1023,9 60 0,0
11.08.2018 09:00:00 14,8 11,9 9 5 18 10 SW 1023,5 60 0,0
11.08.2018 08:00:00 13,3 11,7 7 4 12 7 SW 1022,9 60 0,0
11.08.2018 07:00:00 12,5 11,5 8 4 13 7 SW 1022,4 12 0,0
11.08.2018 06:00:00 12,8 11,8 9 5 16 9 SW 1022,0 0 0,0
11.08.2018 05:00:00 13,2 12,0 9 5 15 8 WSW 1021,4 0 0,0
11.08.2018 04:00:00 13,4 12,0 9 5 17 9 SW 1021,2 0 0,0
11.08.2018 03:00:00 13,6 12,2 9 5 15 8 SW 1021,1 0 0,0
11.08.2018 02:00:00 13,9 12,5 7 4 16 9 SW 1021,2 0 0,2
11.08.2018 01:00:00 14,1 11,8 12 7 39 21 W 1021,2 0 6,1
11.08.2018 00:00:00 16,2 13,3 12 7 29 16 WSW 1020,7 0 0,1
10.08.2018 23:00:00 17,1 11,9 11 6 23 12 WSW 1020,4 0 0,0
10.08.2018 22:00:00 18,1 10,6 10 6 37 20 W 1020,4 0 0,0
10.08.2018 21:00:00 20,6 7,7 16 9 29 16 SW 1019,9 0 0,0
10.08.2018 20:00:00 21,0 7,3 22 12 38 21 SSW 1019,9 1 0,0
10.08.2018 19:00:00 21,5 6,4 24 13 41 22 SSW 1020,0 27 0,0
10.08.2018 18:00:00 22,2 7,7 22 12 43 23 SW 1020,3 47 0,0
10.08.2018 17:00:00 22,1 8,1 25 13 40 22 SW 1020,7 40 0,0
10.08.2018 16:00:00 20,0 9,8 14 8 29 16 WSW 1021,4 23 0,0
10.08.2018 15:00:00 19,0 10,7 11 6 40 22 WSW 1021,8 15 0,0
10.08.2018 14:00:00 19,9 8,4 25 14 44 24 SW 1021,8 39 0,0
10.08.2018 13:00:00 19,5 9,5 23 12 37 20 SW 1022,0 35 0,0
10.08.2018 12:00:00 18,9 9,8 21 11 37 20 SSW 1022,1 46 0,0
10.08.2018 11:00:00 17,7 11,5 22 12 35 19 SW 1022,0 56 0,0
10.08.2018 10:00:00 16,8 11,3 20 11 32 17 SSW 1021,8 60 0,0
10.08.2018 09:00:00 15,3 11,6 16 9 30 16 SW 1021,2 60 0,0
10.08.2018 08:00:00 14,4 11,3 14 8 27 14 SSW 1020,9 60 0,0
10.08.2018 07:00:00 13,9 11,4 13 7 26 14 SSW 1020,3 2 0,0
10.08.2018 06:00:00 14,0 11,7 16 9 27 15 SSW 1019,8 0 0,0
10.08.2018 05:00:00 13,5 12,1 9 5 15 8 S 1019,7 0 0,0
10.08.2018 04:00:00 13,5 11,5 8 4 16 9 SSW 1019,4 0 0,0
10.08.2018 03:00:00 13,7 12,1 9 5 19 11 SW 1019,1 0 0,0
10.08.2018 02:00:00 13,9 12,4 11 6 21 11 SW 1018,5 0 0,0
10.08.2018 01:00:00 14,5 12,8 13 7 25 14 SW 1017,9 0 0,0
10.08.2018 00:00:00 15,1 13,2 15 8 47 25 WSW 1016,4 0 0,1
09.08.2018 23:00:00 15,6 13,9 16 9 41 22 W 1015,3 0 0,1
09.08.2018 22:00:00 15,5 14,1 24 13 44 24 WSW 1013,7 0 0,6
09.08.2018 21:00:00 16,4 14,5 28 15 54 29 WSW 1011,5 0 0,0
09.08.2018 20:00:00 18,8 15,7 18 10 44 24 SW 1009,9 0 0,0
09.08.2018 19:00:00 19,5 15,5 28 15 48 26 SW 1009,0 10 0,0
09.08.2018 18:00:00 21,0 17,9 27 14 44 24 SSW 1007,4 7 1,7
09.08.2018 17:00:00 23,3 19,3 12 6 22 12 SSE 1006,5 11 0,0
09.08.2018 16:00:00 20,9 17,8 11 6 22 12 SE 1007,3 - -
09.08.2018 15:00:00 20,1 17,7 11 6 19 11 E 1007,7 0 0,0
09.08.2018 14:00:00 19,3 17,0 11 6 - - ENE 1008,3 - -
09.08.2018 13:00:00 19,7 15,7 14 8 40 21 ENE 1008,6 - -
09.08.2018 12:00:00 20,2 14,5 18 10 33 18 ENE 1009,7 11 0,0
09.08.2018 11:00:00 19,3 14,0 18 10 - - E 1010,3 - -
09.08.2018 10:00:00 19,0 12,8 10 6 17 9 ENE 1011,5 0 0,0
09.08.2018 09:00:00 18,2 12,3 12 6 22 12 ENE 1012,2 4 0,0
09.08.2018 08:00:00 16,9 11,8 7 4 - - E 1012,8 - -
09.08.2018 07:00:00 15,7 11,7 7 4 11 6 NE 1013,1 - -
09.08.2018 06:00:00 14,4 12,3 0 0 7 4 N 1014,0 0 0,0
09.08.2018 05:00:00 14,4 12,0 0 0 - - N 1014,2 - -
09.08.2018 04:00:00 14,0 12,5 4 2 6 3 E 1014,5 0 0,0
09.08.2018 03:00:00 13,6 11,7 4 2 7 4 E 1015,1 - -
09.08.2018 02:00:00 13,8 11,7 0 0 4 2 N 1015,5 0 0,0
09.08.2018 01:00:00 14,6 12,1 0 0 4 2 N 1015,6 0 0,0
09.08.2018 00:00:00 15,4 12,4 0 0 5 3 N 1015,6 0 0,0
08.08.2018 23:00:00 16,2 12,3 4 2 - - E 1015,8 - -
08.08.2018 22:00:00 17,9 11,7 0 0 4 2 N 1015,6 5 0,0
08.08.2018 21:00:00 21,5 10,3 4 2 18 10 W 1015,1 57 0,0
08.08.2018 20:00:00 22,0 9,5 14 8 - - W 1015,1 - -
08.08.2018 19:00:00 22,4 10,4 11 6 36 19 SW 1014,8 - -
08.08.2018 18:00:00 22,7 10,7 15 8 34 18 WSW 1014,9 48 0,0
08.08.2018 17:00:00 22,0 11,0 18 10 - - WSW 1015,0 - -
08.08.2018 16:00:00 22,3 11,8 20 11 37 20 WSW 1014,7 23 0,0
08.08.2018 15:00:00 21,8 11,8 18 10 36 19 WSW 1014,6 - -
08.08.2018 14:00:00 22,2 13,1 22 12 40 22 SW 1014,0 14 0,0
08.08.2018 13:00:00 21,3 13,1 21 11 47 26 SSW 1013,3 39 0,0
08.08.2018 12:00:00 21,3 13,7 21 11 40 22 WSW 1012,6 60 0,0
08.08.2018 11:00:00 20,7 13,7 25 14 - - SW 1011,4 - -
08.08.2018 10:00:00 20,3 16,5 16 9 31 17 SW 1010,6 4 0,0
08.08.2018 09:00:00 19,9 17,0 18 10 34 18 SSW 1010,3 3 0,0
08.08.2018 08:00:00 19,8 16,9 22 12 - - SSW 1009,4 - -

tt = Température de l'air
td = dewpoint
ff = Vitesse du vent
fx = gusts
dd = Direction du vent
ppp = reduced air pressure
sd = Ensoleillement
rr = Quantités de précipitations

stations d'obs. à proximité